createdAt,value
2022-11-24T00:02:31.476Z,15.77
2022-11-24T00:05:05.533Z,13.98
2022-11-24T00:07:39.256Z,17.83
2022-11-24T00:10:12.667Z,14.68
2022-11-24T00:12:46.197Z,14.65
2022-11-24T00:15:19.565Z,14.07
2022-11-24T00:17:54.619Z,15.23
2022-11-24T00:20:28.200Z,15.90
2022-11-24T00:23:01.671Z,15.32
2022-11-24T00:25:35.355Z,15.18
2022-11-24T00:28:08.678Z,17.17
2022-11-24T00:30:42.385Z,15.35
2022-11-24T00:33:17.317Z,15.73
2022-11-24T00:35:56.249Z,15.38
2022-11-24T00:38:29.746Z,15.18
2022-11-24T00:41:03.093Z,14.05
2022-11-24T00:43:36.611Z,14.00
2022-11-24T00:46:10.212Z,16.83
2022-11-24T00:48:45.043Z,13.88
2022-11-24T00:51:19.857Z,14.18
2022-11-24T00:53:53.512Z,15.10
2022-11-24T00:56:31.235Z,13.65
2022-11-24T00:59:05.524Z,13.18
2022-11-24T01:01:39.198Z,12.80
2022-11-24T01:04:14.008Z,12.93
2022-11-24T01:06:47.512Z,12.18
2022-11-24T01:09:21.062Z,11.18
2022-11-24T01:12:04.313Z,13.50
2022-11-24T01:14:37.779Z,11.55
2022-11-24T01:17:11.576Z,14.70
2022-11-24T01:19:47.583Z,12.20
2022-11-24T01:22:20.921Z,12.73
2022-11-24T01:24:54.544Z,14.52
2022-11-24T01:27:27.912Z,12.57
2022-11-24T01:30:01.813Z,11.32
2022-11-24T01:32:36.351Z,13.25
2022-11-24T01:35:11.722Z,12.13
2022-11-24T01:37:45.040Z,13.30
2022-11-24T01:40:18.635Z,12.02
2022-11-24T01:42:53.783Z,11.65
2022-11-24T01:45:35.498Z,11.95
2022-11-24T01:48:15.897Z,12.23
2022-11-24T01:50:56.151Z,13.27
2022-11-24T01:53:29.621Z,11.23
2022-11-24T01:56:03.712Z,11.40
2022-11-24T01:58:38.971Z,11.55
2022-11-24T02:01:12.850Z,11.57
2022-11-24T02:03:48.452Z,11.32
2022-11-24T02:06:27.669Z,12.30
2022-11-24T02:09:07.405Z,12.60
2022-11-24T02:11:42.893Z,12.43
2022-11-24T02:14:19.443Z,12.85
2022-11-24T02:16:53.376Z,12.05
2022-11-24T02:19:42.831Z,12.70
2022-11-24T02:22:24.295Z,14.20
2022-11-24T02:25:05.649Z,12.68
2022-11-24T02:27:40.410Z,12.63
2022-11-24T02:30:13.932Z,11.85
2022-11-24T02:32:47.258Z,12.98
2022-11-24T02:35:21.028Z,13.55
2022-11-24T02:37:54.354Z,12.55
2022-11-24T02:40:30.465Z,12.43
2022-11-24T02:43:10.879Z,12.32
2022-11-24T02:45:44.415Z,12.82
2022-11-24T02:48:18.314Z,13.93
2022-11-24T02:50:51.668Z,12.43
2022-11-24T02:53:25.339Z,11.43
2022-11-24T02:55:58.680Z,13.27
2022-11-24T02:58:33.746Z,13.75
2022-11-24T03:01:07.188Z,13.02
2022-11-24T03:03:40.793Z,13.20
2022-11-24T03:06:14.132Z,12.02
2022-11-24T03:08:47.632Z,14.43
2022-11-24T03:11:21.283Z,12.88
2022-11-24T03:13:56.296Z,14.07
2022-11-24T03:16:29.843Z,13.18
2022-11-24T03:19:03.484Z,12.70
2022-11-24T03:21:37.908Z,12.55
2022-11-24T03:24:11.445Z,14.10
2022-11-24T03:26:44.860Z,12.23
2022-11-24T03:29:19.928Z,13.55
2022-11-24T03:31:53.415Z,12.95
2022-11-24T03:34:26.743Z,12.77
2022-11-24T03:37:00.570Z,13.95
2022-11-24T03:39:33.927Z,12.38
2022-11-24T03:42:07.816Z,13.60
2022-11-24T03:44:42.691Z,13.43
2022-11-24T03:47:16.051Z,12.43
2022-11-24T03:49:49.848Z,10.93
2022-11-24T03:52:23.174Z,12.40
2022-11-24T03:54:56.692Z,13.25
2022-11-24T03:57:30.291Z,12.70
2022-11-24T04:00:06.955Z,12.43
2022-11-24T04:02:41.357Z,12.63
2022-11-24T04:05:14.964Z,11.85
2022-11-24T04:07:48.383Z,12.68
2022-11-24T04:10:21.760Z,11.60
2022-11-24T04:12:54.453Z,13.82
2022-11-24T04:15:29.224Z,12.48
2022-11-24T04:18:02.751Z,12.35
2022-11-24T04:20:36.267Z,12.80
2022-11-24T04:23:10.491Z,12.60
2022-11-24T04:25:44.196Z,12.98
2022-11-24T04:28:18.379Z,13.13
2022-11-24T04:30:53.308Z,14.93
2022-11-24T04:33:26.678Z,12.68
2022-11-24T04:36:00.234Z,13.77
2022-11-24T04:39:23.083Z,12.77
2022-11-24T04:41:27.460Z,13.30
2022-11-24T04:44:01.112Z,12.55
2022-11-24T04:46:35.902Z,13.65
2022-11-24T04:49:11.927Z,10.82
2022-11-24T04:51:45.384Z,11.82
2022-11-24T04:54:18.898Z,11.00
2022-11-24T04:56:53.250Z,12.18
2022-11-24T04:59:26.808Z,13.02
2022-11-24T05:02:01.675Z,12.35
2022-11-24T05:04:35.680Z,11.30
2022-11-24T05:07:14.974Z,13.10
2022-11-24T05:10:08.903Z,12.60
2022-11-24T05:12:45.749Z,11.35
2022-11-24T05:15:21.832Z,12.65
2022-11-24T05:17:57.272Z,11.38
2022-11-24T05:20:30.588Z,12.73
2022-11-24T05:23:05.170Z,11.40
2022-11-24T05:25:39.722Z,11.80
2022-11-24T05:28:14.887Z,12.20
2022-11-24T05:30:48.184Z,13.77
2022-11-24T05:33:23.173Z,13.75
2022-11-24T05:35:57.050Z,12.82
2022-11-24T05:38:31.084Z,13.15
2022-11-24T05:41:05.898Z,13.77
2022-11-24T05:43:39.194Z,13.80
2022-11-24T05:46:12.714Z,13.32
2022-11-24T05:48:47.505Z,13.45
2022-11-24T05:51:20.869Z,14.35
2022-11-24T05:53:54.136Z,13.93
2022-11-24T05:56:27.401Z,16.08
2022-11-24T05:59:04.144Z,16.23
2022-11-24T06:01:40.129Z,16.00
2022-11-24T06:04:15.221Z,16.67
2022-11-24T06:06:48.630Z,14.27
2022-11-24T06:09:22.130Z,14.52
2022-11-24T06:11:55.469Z,14.52
2022-11-24T06:14:28.716Z,14.40
2022-11-24T06:17:02.511Z,14.98
2022-11-24T06:19:41.744Z,14.52
2022-11-24T06:22:15.600Z,15.68
2022-11-24T06:24:50.654Z,12.95
2022-11-24T06:27:24.227Z,14.68
2022-11-24T06:29:57.504Z,16.23
2022-11-24T06:32:30.797Z,15.32
2022-11-24T06:35:06.509Z,14.90
2022-11-24T06:37:40.207Z,15.20
2022-11-24T06:40:13.973Z,13.82
2022-11-24T06:42:52.222Z,13.32
2022-11-24T06:45:25.663Z,15.45
2022-11-24T06:47:58.930Z,13.23
2022-11-24T06:50:33.946Z,14.27
2022-11-24T06:53:07.931Z,12.13
2022-11-24T06:55:41.965Z,14.23
2022-11-24T06:58:15.285Z,15.55
2022-11-24T07:00:48.628Z,13.45
2022-11-24T07:03:22.102Z,12.85
2022-11-24T07:05:59.055Z,13.77
2022-11-24T07:08:32.302Z,12.25
2022-11-24T07:11:07.130Z,13.63
2022-11-24T07:13:40.429Z,13.10
2022-11-24T07:16:15.268Z,14.13
2022-11-24T07:18:49.650Z,11.60
2022-11-24T07:21:25.986Z,12.57
2022-11-24T07:23:59.817Z,12.60
2022-11-24T07:26:37.241Z,12.02
2022-11-24T07:29:10.570Z,13.55
2022-11-24T07:31:45.694Z,12.73
2022-11-24T07:34:20.137Z,13.45
2022-11-24T07:36:54.809Z,12.75
2022-11-24T07:39:28.072Z,15.88
2022-11-24T07:42:01.677Z,12.05
2022-11-24T07:44:35.178Z,12.45
2022-11-24T07:47:08.541Z,14.43
2022-11-24T07:49:41.848Z,15.07
2022-11-24T07:52:16.474Z,13.70
2022-11-24T07:54:52.427Z,12.15
2022-11-24T07:57:25.702Z,14.30
2022-11-24T07:59:58.967Z,15.25
2022-11-24T08:02:32.320Z,14.13
2022-11-24T08:05:06.086Z,12.98
2022-11-24T08:07:40.769Z,13.40
2022-11-24T08:10:14.114Z,12.65
2022-11-24T08:12:47.462Z,13.30
2022-11-24T08:15:20.739Z,11.55
2022-11-24T08:17:54.011Z,13.57
2022-11-24T08:20:29.754Z,13.50
2022-11-24T08:23:04.788Z,13.80
2022-11-24T08:25:38.034Z,12.18
2022-11-24T08:28:11.289Z,11.10
2022-11-24T08:30:44.536Z,10.77
2022-11-24T08:33:17.783Z,12.70
2022-11-24T08:35:51.211Z,11.35
2022-11-24T08:38:25.832Z,10.93
2022-11-24T08:41:02.908Z,9.38
2022-11-24T08:43:36.764Z,11.32
2022-11-24T08:46:12.216Z,10.95
2022-11-24T08:48:48.230Z,10.35
2022-11-24T08:51:23.716Z,10.52
2022-11-24T08:53:59.668Z,10.40
2022-11-24T08:56:34.313Z,10.50
2022-11-24T08:59:08.117Z,10.80
2022-11-24T09:01:41.806Z,11.65
2022-11-24T09:04:15.351Z,12.30
2022-11-24T09:06:48.836Z,11.25
2022-11-24T09:09:23.458Z,9.43
2022-11-24T09:11:57.060Z,11.73
2022-11-24T09:14:30.568Z,11.40
2022-11-24T09:17:04.221Z,13.82
2022-11-24T09:19:37.716Z,11.88
2022-11-24T09:22:10.973Z,10.75
2022-11-24T09:24:45.624Z,10.50
2022-11-24T09:27:19.225Z,12.00
2022-11-24T09:29:52.474Z,10.52
2022-11-24T09:32:26.285Z,11.07
2022-11-24T09:35:02.415Z,10.73
2022-11-24T09:37:36.231Z,11.68
2022-11-24T09:40:14.968Z,10.57
2022-11-24T09:42:58.786Z,10.05
2022-11-24T09:48:42.722Z,9.30
2022-11-24T09:51:16.843Z,9.13
2022-11-24T09:53:55.151Z,10.75
2022-11-24T09:56:32.472Z,8.88
2022-11-24T09:59:11.744Z,10.30
2022-11-24T10:01:48.348Z,9.25
2022-11-24T10:04:25.523Z,11.38
2022-11-24T10:07:08.363Z,10.80
2022-11-24T10:09:54.382Z,10.95
2022-11-24T10:12:42.228Z,9.35
2022-11-24T10:15:28.285Z,9.77
2022-11-24T10:18:17.195Z,10.30
2022-11-24T10:21:00.546Z,10.13
2022-11-24T10:24:09.565Z,11.00
2022-11-24T10:26:48.168Z,10.85
2022-11-24T10:29:29.086Z,11.00
2022-11-24T10:32:06.206Z,11.10
2022-11-24T10:34:44.635Z,11.38
2022-11-24T10:37:24.754Z,10.80
2022-11-24T10:40:05.335Z,10.77
2022-11-24T10:42:38.742Z,10.02
2022-11-24T10:45:15.899Z,11.90
2022-11-24T10:47:50.475Z,10.80
2022-11-24T10:50:26.324Z,10.65
2022-11-24T10:53:07.212Z,11.43
2022-11-24T10:55:59.830Z,12.38
2022-11-24T10:58:38.035Z,11.25
2022-11-24T11:01:30.148Z,10.32
2022-11-24T11:04:03.506Z,11.70
2022-11-24T11:06:38.131Z,11.82
2022-11-24T11:09:20.452Z,12.35
2022-11-24T11:11:55.562Z,11.80
2022-11-24T11:14:35.582Z,11.00
2022-11-24T11:17:33.943Z,11.48
2022-11-24T11:20:17.782Z,10.27
2022-11-24T11:22:51.871Z,12.57
2022-11-24T11:25:30.617Z,12.52
2022-11-24T11:28:29.258Z,11.23
2022-11-24T11:31:22.141Z,10.43
2022-11-24T11:34:03.626Z,12.30
2022-11-24T11:36:41.618Z,12.10
2022-11-24T11:39:27.931Z,12.00
2022-11-24T11:42:25.757Z,13.23
2022-11-24T11:45:13.114Z,11.65
2022-11-24T11:47:50.960Z,10.90
2022-11-24T11:50:28.785Z,12.80
2022-11-24T11:53:14.908Z,11.68
2022-11-24T11:55:59.594Z,12.55
2022-11-24T11:59:06.322Z,11.38
2022-11-24T12:02:14.479Z,11.63
2022-11-24T12:04:53.873Z,13.85
2022-11-24T12:07:43.707Z,12.82
2022-11-24T12:10:25.723Z,13.63
2022-11-24T12:13:24.033Z,12.40
2022-11-24T12:16:00.128Z,13.70
2022-11-24T12:18:57.260Z,12.35
2022-11-24T12:21:39.897Z,12.20
2022-11-24T12:24:22.721Z,12.93
2022-11-24T12:27:00.011Z,13.65
2022-11-24T12:30:06.966Z,12.57
2022-11-24T12:33:10.728Z,11.77
2022-11-24T12:35:45.741Z,11.43
2022-11-24T12:38:43.948Z,11.77
2022-11-24T12:41:41.832Z,12.32
2022-11-24T12:44:36.695Z,11.63
2022-11-24T12:47:17.911Z,12.25
2022-11-24T12:50:03.920Z,13.23
2022-11-24T12:52:41.684Z,12.05
2022-11-24T12:55:19.514Z,10.98
2022-11-24T12:58:09.373Z,12.93
2022-11-24T13:00:55.861Z,12.50
2022-11-24T13:03:38.255Z,12.65
2022-11-24T13:06:17.955Z,12.50
2022-11-24T13:08:51.677Z,12.88
2022-11-24T13:11:41.323Z,13.15
2022-11-24T13:14:20.237Z,13.43
2022-11-24T13:17:28.221Z,13.88
2022-11-24T13:19:52.398Z,11.05
2022-11-24T13:22:27.086Z,11.40
2022-11-24T13:25:17.353Z,13.02
2022-11-24T13:27:53.482Z,15.05
2022-11-24T13:30:59.749Z,14.80
2022-11-24T13:33:36.089Z,12.95
2022-11-24T13:36:35.063Z,13.63
2022-11-24T13:39:21.179Z,12.65
2022-11-24T13:42:03.570Z,11.77
2022-11-24T13:44:53.624Z,14.75
2022-11-24T13:47:45.143Z,14.55
2022-11-24T13:51:10.071Z,13.20
2022-11-24T13:53:47.660Z,11.93
2022-11-24T13:56:30.636Z,11.48
2022-11-24T13:59:17.340Z,11.85
2022-11-24T14:01:58.483Z,12.50
2022-11-24T14:04:33.239Z,12.70
2022-11-24T14:07:09.647Z,13.52
2022-11-24T14:09:47.108Z,14.43
2022-11-24T14:12:22.349Z,12.10
2022-11-24T14:15:13.888Z,11.63
2022-11-24T14:17:47.148Z,12.48
2022-11-24T14:20:25.760Z,12.18
2022-11-24T14:23:00.717Z,11.75
2022-11-24T14:25:36.026Z,11.82
2022-11-24T14:28:20.718Z,12.70
2022-11-24T14:31:08.705Z,11.50
2022-11-24T14:33:42.113Z,12.43
2022-11-24T14:36:16.436Z,11.82
2022-11-24T14:38:49.964Z,10.77
2022-11-24T14:41:28.479Z,13.15
2022-11-24T14:44:08.139Z,12.07
2022-11-24T14:46:41.864Z,12.27
2022-11-24T14:49:21.205Z,13.90
2022-11-24T14:51:59.407Z,12.70
2022-11-24T14:54:33.440Z,13.68
2022-11-24T14:57:23.064Z,15.77
2022-11-24T15:00:16.988Z,16.95
2022-11-24T15:02:53.801Z,14.82
2022-11-24T15:05:27.215Z,14.10
2022-11-24T15:08:03.449Z,23.38
2022-11-24T15:10:38.569Z,15.98
2022-11-24T15:13:19.677Z,18.73
2022-11-24T15:16:02.017Z,25.75
2022-11-24T15:18:42.975Z,19.10
2022-11-24T15:21:19.526Z,16.88
2022-11-24T15:24:07.675Z,20.48
2022-11-24T15:26:42.391Z,18.40
2022-11-24T15:29:17.260Z,16.40
2022-11-24T15:31:52.778Z,15.88
2022-11-24T15:34:26.407Z,15.07
2022-11-24T15:36:59.667Z,17.80
2022-11-24T15:39:32.960Z,17.08
2022-11-24T15:42:06.339Z,17.33
2022-11-24T15:44:41.015Z,17.58
2022-11-24T15:47:14.380Z,17.02
2022-11-24T15:49:47.777Z,20.10
2022-11-24T15:52:21.106Z,31.25
2022-11-24T15:54:57.163Z,21.73
2022-11-24T15:57:30.522Z,19.33
2022-11-24T16:00:06.131Z,38.45
2022-11-24T16:02:45.486Z,18.00
2022-11-24T16:05:19.401Z,19.55
2022-11-24T16:07:52.843Z,15.50
2022-11-24T16:10:29.439Z,11.63
2022-11-24T16:13:02.939Z,12.07
2022-11-24T16:15:38.088Z,13.00
2022-11-24T16:18:13.909Z,12.75
2022-11-24T16:20:47.243Z,17.17
2022-11-24T16:23:21.695Z,12.27
2022-11-24T16:25:54.933Z,12.95
2022-11-24T16:28:28.251Z,12.30
2022-11-24T16:31:03.001Z,20.23
2022-11-24T16:33:38.679Z,14.82
2022-11-24T16:36:12.163Z,11.50
2022-11-24T16:38:45.598Z,11.65
2022-11-24T16:41:18.924Z,12.60
2022-11-24T16:43:53.053Z,48.30
2022-11-24T16:46:28.942Z,14.45
2022-11-24T16:49:03.587Z,11.45
2022-11-24T16:51:36.913Z,11.13
2022-11-24T16:54:10.520Z,10.00
2022-11-24T16:56:43.812Z,10.27
2022-11-24T16:59:17.087Z,9.90
2022-11-24T17:01:51.960Z,9.25
2022-11-24T17:04:25.346Z,11.60
2022-11-24T17:06:58.884Z,9.52
2022-11-24T17:09:37.388Z,19.05
2022-11-24T17:12:13.557Z,13.65
2022-11-24T17:15:09.336Z,15.98
2022-11-24T17:18:01.322Z,12.13
2022-11-24T17:20:36.127Z,13.80
2022-11-24T17:23:09.511Z,11.38
2022-11-24T17:25:42.905Z,10.93
2022-11-24T17:28:16.182Z,11.02
2022-11-24T17:30:49.473Z,11.20
2022-11-24T17:33:24.175Z,9.50
2022-11-24T17:36:01.893Z,9.50
2022-11-24T17:38:36.093Z,11.52
2022-11-24T17:41:09.686Z,11.20
2022-11-24T17:43:42.940Z,8.90
2022-11-24T17:46:16.274Z,7.68
2022-11-24T17:48:50.969Z,8.68
2022-11-24T17:51:25.976Z,9.15
2022-11-24T17:53:59.269Z,9.68
2022-11-24T17:56:32.541Z,10.50
2022-11-24T17:59:05.842Z,9.13
2022-11-24T18:01:39.174Z,8.85
2022-11-24T18:04:14.060Z,7.63
2022-11-24T18:06:47.348Z,7.22
2022-11-24T18:09:20.629Z,7.70
2022-11-24T18:11:54.208Z,8.30
2022-11-24T18:14:27.512Z,8.70
2022-11-24T18:17:02.540Z,10.02
2022-11-24T18:19:37.301Z,9.50
2022-11-24T18:22:10.701Z,9.73
2022-11-24T18:24:44.000Z,12.15
2022-11-24T18:27:17.287Z,16.75
2022-11-24T18:29:55.971Z,10.85
2022-11-24T18:32:29.552Z,12.25
2022-11-24T18:35:04.306Z,11.40
2022-11-24T18:37:43.411Z,10.35
2022-11-24T18:40:16.886Z,11.98
2022-11-24T18:42:50.186Z,15.32
2022-11-24T18:45:23.461Z,10.73
2022-11-24T18:47:56.802Z,10.80
2022-11-24T18:50:31.407Z,11.20
2022-11-24T18:53:04.669Z,11.50
2022-11-24T18:55:37.950Z,12.20
2022-11-24T18:58:11.251Z,11.00
2022-11-24T19:00:44.600Z,11.57
2022-11-24T19:03:17.863Z,10.43
2022-11-24T19:05:52.541Z,9.38
2022-11-24T19:08:25.812Z,9.38
2022-11-24T19:10:59.207Z,12.23
2022-11-24T19:13:32.435Z,10.30
2022-11-24T19:16:12.429Z,11.23
2022-11-24T19:18:50.441Z,17.65
2022-11-24T19:21:28.314Z,10.82
2022-11-24T19:24:05.250Z,9.65
2022-11-24T19:26:39.613Z,12.13
2022-11-24T19:29:12.977Z,9.15
2022-11-24T19:31:46.312Z,7.78
2022-11-24T19:34:19.809Z,7.55
2022-11-24T19:36:54.723Z,9.05
2022-11-24T19:39:28.013Z,7.50
2022-11-24T19:42:01.281Z,7.53
2022-11-24T19:44:34.721Z,8.85
2022-11-24T19:47:08.177Z,6.68
2022-11-24T19:49:41.452Z,7.38
2022-11-24T19:52:16.087Z,7.20
2022-11-24T19:54:49.411Z,7.07
2022-11-24T19:57:22.695Z,7.70
2022-11-24T19:59:55.995Z,7.70
2022-11-24T20:02:35.526Z,7.72
2022-11-24T20:05:09.484Z,7.18
2022-11-24T20:07:44.202Z,5.93
2022-11-24T20:10:17.534Z,6.88
2022-11-24T20:12:50.841Z,6.55
2022-11-24T20:15:24.217Z,7.40
2022-11-24T20:17:59.781Z,7.05
2022-11-24T20:20:33.684Z,6.55
2022-11-24T20:23:08.320Z,6.13
2022-11-24T20:25:41.661Z,7.10
2022-11-24T20:28:14.960Z,6.43
2022-11-24T20:30:48.245Z,7.70
2022-11-24T20:33:21.522Z,6.65
2022-11-24T20:35:54.849Z,6.72
2022-11-24T20:38:30.282Z,7.30
2022-11-24T20:41:08.950Z,6.47
2022-11-24T20:43:43.580Z,6.57
2022-11-24T20:46:19.017Z,6.35
2022-11-24T20:48:52.741Z,6.68
2022-11-24T20:51:28.272Z,6.57
2022-11-24T20:54:04.898Z,5.50
2022-11-24T20:56:40.948Z,7.15
2022-11-24T20:59:15.909Z,7.32
2022-11-24T21:01:50.582Z,8.25
2022-11-24T21:04:25.805Z,7.70
2022-11-24T21:06:59.103Z,7.80
2022-11-24T21:09:33.806Z,6.72
2022-11-24T21:12:07.744Z,6.07
2022-11-24T21:14:41.667Z,6.50
2022-11-24T21:17:15.088Z,4.68
2022-11-24T21:19:48.471Z,7.18
2022-11-24T21:22:21.746Z,6.45
2022-11-24T21:24:56.417Z,6.82
2022-11-24T21:27:29.827Z,9.25
2022-11-24T21:30:03.153Z,6.15
2022-11-24T21:32:36.856Z,7.22
2022-11-24T21:35:10.797Z,15.15
2022-11-24T21:37:44.104Z,13.27
2022-11-24T21:40:18.932Z,9.77
2022-11-24T21:42:52.197Z,10.75
2022-11-24T21:45:25.789Z,7.50
2022-11-24T21:48:01.075Z,7.63
2022-11-24T21:50:34.389Z,12.43
2022-11-24T21:53:09.509Z,19.77
2022-11-24T21:55:44.174Z,13.20
2022-11-24T21:58:17.500Z,10.13
2022-11-24T22:00:50.942Z,9.95
2022-11-24T22:03:24.306Z,12.00
2022-11-24T22:05:59.027Z,10.98
2022-11-24T22:08:32.955Z,7.40
2022-11-24T22:11:09.089Z,11.00
2022-11-24T22:13:42.961Z,15.32
2022-11-24T22:16:18.191Z,12.65
2022-11-24T22:18:52.044Z,7.10
2022-11-24T22:21:30.103Z,11.88
2022-11-24T22:24:04.186Z,6.60
2022-11-24T22:26:39.210Z,14.55
2022-11-24T22:29:12.632Z,6.93
2022-11-24T22:31:46.166Z,5.40
2022-11-24T22:34:19.454Z,6.95
2022-11-24T22:36:52.752Z,6.53
2022-11-24T22:39:26.180Z,6.75
2022-11-24T22:42:00.780Z,8.30
2022-11-24T22:44:34.429Z,5.97
2022-11-24T22:47:07.885Z,6.07
2022-11-24T22:49:41.343Z,5.03
2022-11-24T22:52:16.109Z,5.97
2022-11-24T22:54:49.355Z,5.65
2022-11-24T22:57:24.182Z,6.55
2022-11-24T22:59:57.493Z,6.65
2022-11-24T23:02:31.080Z,5.07
2022-11-24T23:05:04.560Z,5.05
2022-11-24T23:07:38.431Z,5.22
2022-11-24T23:10:12.696Z,4.28
2022-11-24T23:12:47.481Z,4.57
2022-11-24T23:15:20.718Z,5.25
2022-11-24T23:17:54.303Z,5.05
2022-11-24T23:20:27.552Z,5.07
2022-11-24T23:23:00.795Z,4.78
2022-11-24T23:25:34.992Z,5.78
2022-11-24T23:28:09.635Z,5.22
2022-11-24T23:30:43.463Z,4.32
2022-11-24T23:33:16.737Z,4.97
2022-11-24T23:35:49.989Z,4.53
2022-11-24T23:38:28.611Z,3.90
2022-11-24T23:41:04.495Z,4.88
2022-11-24T23:43:41.138Z,5.80
2022-11-24T23:46:16.602Z,3.70
2022-11-24T23:48:50.782Z,3.97
2022-11-24T23:51:25.858Z,4.50
2022-11-24T23:54:00.174Z,4.40
2022-11-24T23:56:34.067Z,4.32
2022-11-24T23:59:11.567Z,4.43
